sensor_id;sensor_type;location;lat;lon;timestamp;temperature;humidity
33863;DHT22;20158;51.436;-2.742;2023-02-02T00:02:05;10.90;67.90
33863;DHT22;20158;51.436;-2.742;2023-02-02T00:04:33;10.90;68.00
33863;DHT22;20158;51.436;-2.742;2023-02-02T00:07:00;10.90;68.00
33863;DHT22;20158;51.436;-2.742;2023-02-02T00:09:28;10.90;68.00
33863;DHT22;20158;51.436;-2.742;2023-02-02T00:11:56;10.90;68.00
33863;DHT22;20158;51.436;-2.742;2023-02-02T00:14:22;10.90;68.00
33863;DHT22;20158;51.436;-2.742;2023-02-02T00:16:52;11.00;68.30
33863;DHT22;20158;51.436;-2.742;2023-02-02T00:19:22;10.90;68.10
33863;DHT22;20158;51.436;-2.742;2023-02-02T00:21:49;10.90;68.10
33863;DHT22;20158;51.436;-2.742;2023-02-02T00:24:16;10.90;68.10
33863;DHT22;20158;51.436;-2.742;2023-02-02T00:26:48;10.90;68.10
33863;DHT22;20158;51.436;-2.742;2023-02-02T00:29:27;10.90;68.20
33863;DHT22;20158;51.436;-2.742;2023-02-02T00:31:54;10.90;68.20
33863;DHT22;20158;51.436;-2.742;2023-02-02T00:34:20;10.90;68.30
33863;DHT22;20158;51.436;-2.742;2023-02-02T00:36:47;10.80;68.10
33863;DHT22;20158;51.436;-2.742;2023-02-02T00:39:16;10.80;68.10
33863;DHT22;20158;51.436;-2.742;2023-02-02T00:41:43;10.80;68.20
33863;DHT22;20158;51.436;-2.742;2023-02-02T00:44:09;10.80;68.20
33863;DHT22;20158;51.436;-2.742;2023-02-02T00:46:53;10.80;68.30
33863;DHT22;20158;51.436;-2.742;2023-02-02T00:49:20;10.70;68.10
33863;DHT22;20158;51.436;-2.742;2023-02-02T00:51:46;10.70;68.20
33863;DHT22;20158;51.436;-2.742;2023-02-02T00:54:13;10.80;68.40
33863;DHT22;20158;51.436;-2.742;2023-02-02T00:56:39;10.70;68.30
33863;DHT22;20158;51.436;-2.742;2023-02-02T00:59:05;10.70;68.30
33863;DHT22;20158;51.436;-2.742;2023-02-02T01:01:31;10.70;68.40
33863;DHT22;20158;51.436;-2.742;2023-02-02T01:03:57;10.70;68.40
33863;DHT22;20158;51.436;-2.742;2023-02-02T01:06:24;10.70;68.40
33863;DHT22;20158;51.436;-2.742;2023-02-02T01:08:50;10.70;68.40
33863;DHT22;20158;51.436;-2.742;2023-02-02T01:11:16;10.70;68.50
33863;DHT22;20158;51.436;-2.742;2023-02-02T01:13:42;10.70;68.50
33863;DHT22;20158;51.436;-2.742;2023-02-02T01:16:08;10.70;68.50
33863;DHT22;20158;51.436;-2.742;2023-02-02T01:18:35;10.70;68.50
33863;DHT22;20158;51.436;-2.742;2023-02-02T01:21:10;10.70;68.50
33863;DHT22;20158;51.436;-2.742;2023-02-02T01:23:37;10.70;68.60
33863;DHT22;20158;51.436;-2.742;2023-02-02T01:26:06;10.70;68.60
33863;DHT22;20158;51.436;-2.742;2023-02-02T01:28:33;10.70;68.60
33863;DHT22;20158;51.436;-2.742;2023-02-02T01:31:14;10.60;68.40
33863;DHT22;20158;51.436;-2.742;2023-02-02T01:33:41;10.60;68.50
33863;DHT22;20158;51.436;-2.742;2023-02-02T01:36:12;10.60;68.50
33863;DHT22;20158;51.436;-2.742;2023-02-02T01:38:38;10.60;68.50
33863;DHT22;20158;51.436;-2.742;2023-02-02T01:41:05;10.60;68.50
33863;DHT22;20158;51.436;-2.742;2023-02-02T01:46:15;10.60;68.60
33863;DHT22;20158;51.436;-2.742;2023-02-02T01:49:06;10.60;68.60
33863;DHT22;20158;51.436;-2.742;2023-02-02T01:51:47;10.60;68.60
33863;DHT22;20158;51.436;-2.742;2023-02-02T01:54:23;10.60;68.60
33863;DHT22;20158;51.436;-2.742;2023-02-02T01:57:02;10.60;68.70
33863;DHT22;20158;51.436;-2.742;2023-02-02T01:59:30;10.60;68.70
33863;DHT22;20158;51.436;-2.742;2023-02-02T02:01:56;10.60;68.70
33863;DHT22;20158;51.436;-2.742;2023-02-02T02:04:23;10.60;68.70
33863;DHT22;20158;51.436;-2.742;2023-02-02T02:06:50;10.60;68.70
33863;DHT22;20158;51.436;-2.742;2023-02-02T02:09:18;10.60;68.70
33863;DHT22;20158;51.436;-2.742;2023-02-02T02:11:44;10.70;69.00
33863;DHT22;20158;51.436;-2.742;2023-02-02T02:14:11;10.60;68.80
33863;DHT22;20158;51.436;-2.742;2023-02-02T02:26:46;10.60;68.90
33863;DHT22;20158;51.436;-2.742;2023-02-02T02:40:17;10.60;69.00
33863;DHT22;20158;51.436;-2.742;2023-02-02T02:42:55;10.60;69.00
33863;DHT22;20158;51.436;-2.742;2023-02-02T02:45:24;10.60;69.00
33863;DHT22;20158;51.436;-2.742;2023-02-02T02:47:51;10.60;69.00
33863;DHT22;20158;51.436;-2.742;2023-02-02T02:50:18;10.60;69.00
33863;DHT22;20158;51.436;-2.742;2023-02-02T02:52:47;10.60;69.10
33863;DHT22;20158;51.436;-2.742;2023-02-02T02:55:14;10.60;69.10
33863;DHT22;20158;51.436;-2.742;2023-02-02T03:00:52;10.60;69.10
33863;DHT22;20158;51.436;-2.742;2023-02-02T03:06:13;10.60;69.00
33863;DHT22;20158;51.436;-2.742;2023-02-02T03:08:45;10.60;69.10
33863;DHT22;20158;51.436;-2.742;2023-02-02T03:11:14;10.60;69.10
33863;DHT22;20158;51.436;-2.742;2023-02-02T03:13:41;10.70;69.20
33863;DHT22;20158;51.436;-2.742;2023-02-02T03:16:09;10.60;69.10
33863;DHT22;20158;51.436;-2.742;2023-02-02T03:18:35;10.60;69.10
33863;DHT22;20158;51.436;-2.742;2023-02-02T03:21:01;10.60;69.10
33863;DHT22;20158;51.436;-2.742;2023-02-02T03:23:27;10.70;69.30
33863;DHT22;20158;51.436;-2.742;2023-02-02T03:25:54;10.70;69.30
33863;DHT22;20158;51.436;-2.742;2023-02-02T03:28:22;10.70;69.30
33863;DHT22;20158;51.436;-2.742;2023-02-02T03:30:49;10.70;69.30
33863;DHT22;20158;51.436;-2.742;2023-02-02T03:33:16;10.70;69.30
33863;DHT22;20158;51.436;-2.742;2023-02-02T03:35:43;10.70;69.30
33863;DHT22;20158;51.436;-2.742;2023-02-02T03:38:09;10.70;69.30
33863;DHT22;20158;51.436;-2.742;2023-02-02T03:40:37;10.60;69.10
33863;DHT22;20158;51.436;-2.742;2023-02-02T03:43:04;10.70;69.30
33863;DHT22;20158;51.436;-2.742;2023-02-02T03:45:30;10.60;69.20
33863;DHT22;20158;51.436;-2.742;2023-02-02T03:47:57;10.60;69.20
33863;DHT22;20158;51.436;-2.742;2023-02-02T03:50:23;10.60;69.20
33863;DHT22;20158;51.436;-2.742;2023-02-02T03:52:50;10.60;69.20
33863;DHT22;20158;51.436;-2.742;2023-02-02T03:55:16;10.60;69.20
33863;DHT22;20158;51.436;-2.742;2023-02-02T03:57:42;10.60;69.20
33863;DHT22;20158;51.436;-2.742;2023-02-02T04:00:08;10.60;69.80
33863;DHT22;20158;51.436;-2.742;2023-02-02T04:02:38;10.60;69.20
33863;DHT22;20158;51.436;-2.742;2023-02-02T04:05:04;10.60;69.20
33863;DHT22;20158;51.436;-2.742;2023-02-02T04:07:30;10.60;69.30
33863;DHT22;20158;51.436;-2.742;2023-02-02T04:09:56;10.60;69.30
33863;DHT22;20158;51.436;-2.742;2023-02-02T04:12:22;10.60;69.30
33863;DHT22;20158;51.436;-2.742;2023-02-02T04:14:48;10.60;69.30
33863;DHT22;20158;51.436;-2.742;2023-02-02T04:17:14;10.60;69.30
33863;DHT22;20158;51.436;-2.742;2023-02-02T04:19:39;10.60;69.30
33863;DHT22;20158;51.436;-2.742;2023-02-02T04:22:05;10.60;69.30
33863;DHT22;20158;51.436;-2.742;2023-02-02T04:24:31;10.60;69.30
33863;DHT22;20158;51.436;-2.742;2023-02-02T04:26:57;10.60;69.30
33863;DHT22;20158;51.436;-2.742;2023-02-02T04:29:23;10.60;69.30
33863;DHT22;20158;51.436;-2.742;2023-02-02T04:31:51;10.60;69.30
33863;DHT22;20158;51.436;-2.742;2023-02-02T04:34:17;10.60;69.40
33863;DHT22;20158;51.436;-2.742;2023-02-02T04:36:43;10.60;69.30
33863;DHT22;20158;51.436;-2.742;2023-02-02T04:39:12;10.60;69.30
33863;DHT22;20158;51.436;-2.742;2023-02-02T04:41:38;10.60;69.30
33863;DHT22;20158;51.436;-2.742;2023-02-02T04:44:04;10.60;69.40
33863;DHT22;20158;51.436;-2.742;2023-02-02T04:46:31;10.50;69.20
33863;DHT22;20158;51.436;-2.742;2023-02-02T04:48:57;10.50;69.20
33863;DHT22;20158;51.436;-2.742;2023-02-02T04:51:23;10.50;69.20
33863;DHT22;20158;51.436;-2.742;2023-02-02T04:53:49;10.60;69.40
33863;DHT22;20158;51.436;-2.742;2023-02-02T04:56:16;10.60;69.40
33863;DHT22;20158;51.436;-2.742;2023-02-02T04:58:43;10.60;69.50
33863;DHT22;20158;51.436;-2.742;2023-02-02T05:01:18;10.50;69.30
33863;DHT22;20158;51.436;-2.742;2023-02-02T05:03:45;10.50;69.40
33863;DHT22;20158;51.436;-2.742;2023-02-02T05:06:12;10.60;69.50
33863;DHT22;20158;51.436;-2.742;2023-02-02T05:08:38;10.60;70.10
33863;DHT22;20158;51.436;-2.742;2023-02-02T05:11:06;10.60;69.60
33863;DHT22;20158;51.436;-2.742;2023-02-02T05:13:33;10.60;69.60
33863;DHT22;20158;51.436;-2.742;2023-02-02T05:15:58;10.60;69.60
33863;DHT22;20158;51.436;-2.742;2023-02-02T05:18:24;10.60;69.60
33863;DHT22;20158;51.436;-2.742;2023-02-02T05:20:51;10.60;69.60
33863;DHT22;20158;51.436;-2.742;2023-02-02T05:23:18;10.60;69.70
33863;DHT22;20158;51.436;-2.742;2023-02-02T05:25:43;10.60;69.70
33863;DHT22;20158;51.436;-2.742;2023-02-02T05:28:09;10.60;69.70
33863;DHT22;20158;51.436;-2.742;2023-02-02T05:30:38;10.60;69.80
33863;DHT22;20158;51.436;-2.742;2023-02-02T05:33:04;10.60;69.80
33863;DHT22;20158;51.436;-2.742;2023-02-02T05:35:30;10.60;69.80
33863;DHT22;20158;51.436;-2.742;2023-02-02T05:37:55;10.70;70.00
33863;DHT22;20158;51.436;-2.742;2023-02-02T05:40:21;10.60;69.90
33863;DHT22;20158;51.436;-2.742;2023-02-02T05:42:47;10.60;69.90
33863;DHT22;20158;51.436;-2.742;2023-02-02T05:45:14;10.60;69.90
33863;DHT22;20158;51.436;-2.742;2023-02-02T05:47:40;10.70;70.20
33863;DHT22;20158;51.436;-2.742;2023-02-02T05:50:06;10.70;70.20
33863;DHT22;20158;51.436;-2.742;2023-02-02T05:52:33;10.70;70.20
33863;DHT22;20158;51.436;-2.742;2023-02-02T05:55:00;10.70;70.30
33863;DHT22;20158;51.436;-2.742;2023-02-02T05:57:26;10.70;70.30
33863;DHT22;20158;51.436;-2.742;2023-02-02T05:59:53;10.70;70.30
33863;DHT22;20158;51.436;-2.742;2023-02-02T06:02:19;10.70;70.40
33863;DHT22;20158;51.436;-2.742;2023-02-02T06:04:45;10.70;70.40
33863;DHT22;20158;51.436;-2.742;2023-02-02T06:07:11;10.70;70.40
33863;DHT22;20158;51.436;-2.742;2023-02-02T06:09:38;10.70;70.90
33863;DHT22;20158;51.436;-2.742;2023-02-02T06:12:04;10.70;70.50
33863;DHT22;20158;51.436;-2.742;2023-02-02T06:14:30;10.80;70.70
33863;DHT22;20158;51.436;-2.742;2023-02-02T06:16:56;10.70;70.50
33863;DHT22;20158;51.436;-2.742;2023-02-02T06:19:22;10.80;70.70
33863;DHT22;20158;51.436;-2.742;2023-02-02T06:21:48;10.80;70.70
33863;DHT22;20158;51.436;-2.742;2023-02-02T06:24:14;10.80;70.80
33863;DHT22;20158;51.436;-2.742;2023-02-02T06:26:40;10.80;70.80
33863;DHT22;20158;51.436;-2.742;2023-02-02T06:29:06;10.80;70.80
33863;DHT22;20158;51.436;-2.742;2023-02-02T06:31:32;10.80;70.80
33863;DHT22;20158;51.436;-2.742;2023-02-02T06:33:58;10.80;70.90
33863;DHT22;20158;51.436;-2.742;2023-02-02T06:36:26;10.80;70.90
33863;DHT22;20158;51.436;-2.742;2023-02-02T06:38:54;10.80;70.90
33863;DHT22;20158;51.436;-2.742;2023-02-02T06:41:20;10.80;71.00
33863;DHT22;20158;51.436;-2.742;2023-02-02T06:43:47;10.80;71.00
33863;DHT22;20158;51.436;-2.742;2023-02-02T06:46:14;10.80;71.00
33863;DHT22;20158;51.436;-2.742;2023-02-02T06:48:40;10.80;71.00
33863;DHT22;20158;51.436;-2.742;2023-02-02T06:51:06;10.80;71.10
33863;DHT22;20158;51.436;-2.742;2023-02-02T06:53:33;10.80;71.10
33863;DHT22;20158;51.436;-2.742;2023-02-02T06:56:05;10.80;71.10
33863;DHT22;20158;51.436;-2.742;2023-02-02T06:58:31;10.80;71.20
33863;DHT22;20158;51.436;-2.742;2023-02-02T07:01:05;10.80;71.20
33863;DHT22;20158;51.436;-2.742;2023-02-02T07:03:32;10.80;71.40
33863;DHT22;20158;51.436;-2.742;2023-02-02T07:05:58;10.80;71.60
33863;DHT22;20158;51.436;-2.742;2023-02-02T07:08:24;10.90;71.90
33863;DHT22;20158;51.436;-2.742;2023-02-02T07:10:50;11.00;72.20
33863;DHT22;20158;51.436;-2.742;2023-02-02T07:13:16;11.00;72.10
33863;DHT22;20158;51.436;-2.742;2023-02-02T07:15:42;11.00;72.10
33863;DHT22;20158;51.436;-2.742;2023-02-02T07:18:08;11.00;72.10
33863;DHT22;20158;51.436;-2.742;2023-02-02T07:20:34;11.00;72.10
33863;DHT22;20158;51.436;-2.742;2023-02-02T07:23:02;11.00;72.10
33863;DHT22;20158;51.436;-2.742;2023-02-02T07:25:29;11.00;72.20
33863;DHT22;20158;51.436;-2.742;2023-02-02T07:27:55;11.00;72.30
33863;DHT22;20158;51.436;-2.742;2023-02-02T07:30:21;11.00;72.30
33863;DHT22;20158;51.436;-2.742;2023-02-02T07:32:47;11.00;72.30
33863;DHT22;20158;51.436;-2.742;2023-02-02T07:35:15;11.00;72.30
33863;DHT22;20158;51.436;-2.742;2023-02-02T07:37:41;11.00;72.40
33863;DHT22;20158;51.436;-2.742;2023-02-02T07:40:08;10.90;72.20
33863;DHT22;20158;51.436;-2.742;2023-02-02T07:42:35;11.00;72.40
33863;DHT22;20158;51.436;-2.742;2023-02-02T07:45:01;10.90;72.30
33863;DHT22;20158;51.436;-2.742;2023-02-02T07:47:27;11.00;72.50
33863;DHT22;20158;51.436;-2.742;2023-02-02T07:49:52;10.90;72.30
33863;DHT22;20158;51.436;-2.742;2023-02-02T07:52:18;10.90;72.30
33863;DHT22;20158;51.436;-2.742;2023-02-02T07:54:44;10.90;72.30
33863;DHT22;20158;51.436;-2.742;2023-02-02T07:57:10;11.00;72.50
33863;DHT22;20158;51.436;-2.742;2023-02-02T07:59:38;11.00;72.50
33863;DHT22;20158;51.436;-2.742;2023-02-02T08:02:04;11.00;72.50
33863;DHT22;20158;51.436;-2.742;2023-02-02T08:04:30;11.00;72.50
33863;DHT22;20158;51.436;-2.742;2023-02-02T08:06:58;11.00;72.50
33863;DHT22;20158;51.436;-2.742;2023-02-02T08:09:25;11.00;72.50
33863;DHT22;20158;51.436;-2.742;2023-02-02T08:11:51;11.00;72.50
33863;DHT22;20158;51.436;-2.742;2023-02-02T08:14:17;11.00;72.50
33863;DHT22;20158;51.436;-2.742;2023-02-02T08:16:43;11.00;72.50
33863;DHT22;20158;51.436;-2.742;2023-02-02T08:19:09;11.00;72.50
33863;DHT22;20158;51.436;-2.742;2023-02-02T08:21:35;11.00;72.50
33863;DHT22;20158;51.436;-2.742;2023-02-02T08:24:02;10.90;72.30
33863;DHT22;20158;51.436;-2.742;2023-02-02T08:26:30;11.00;72.50
33863;DHT22;20158;51.436;-2.742;2023-02-02T08:28:59;11.00;72.50
33863;DHT22;20158;51.436;-2.742;2023-02-02T08:31:28;11.00;72.50
33863;DHT22;20158;51.436;-2.742;2023-02-02T08:33:55;11.00;72.60
33863;DHT22;20158;51.436;-2.742;2023-02-02T08:36:27;11.00;72.60
33863;DHT22;20158;51.436;-2.742;2023-02-02T08:38:54;11.00;72.50
33863;DHT22;20158;51.436;-2.742;2023-02-02T08:41:22;11.00;72.50
33863;DHT22;20158;51.436;-2.742;2023-02-02T08:43:49;11.00;72.50
33863;DHT22;20158;51.436;-2.742;2023-02-02T08:46:16;11.10;72.70
33863;DHT22;20158;51.436;-2.742;2023-02-02T08:48:43;11.10;72.70
33863;DHT22;20158;51.436;-2.742;2023-02-02T08:51:12;11.10;72.70
33863;DHT22;20158;51.436;-2.742;2023-02-02T08:53:40;11.10;72.70
33863;DHT22;20158;51.436;-2.742;2023-02-02T08:56:17;11.10;72.60
33863;DHT22;20158;51.436;-2.742;2023-02-02T08:58:49;11.20;72.80
33863;DHT22;20158;51.436;-2.742;2023-02-02T09:01:20;11.20;72.80
33863;DHT22;20158;51.436;-2.742;2023-02-02T09:03:46;11.20;72.70
33863;DHT22;20158;51.436;-2.742;2023-02-02T09:06:15;11.20;72.60
33863;DHT22;20158;51.436;-2.742;2023-02-02T09:08:44;11.20;72.60
33863;DHT22;20158;51.436;-2.742;2023-02-02T09:11:12;11.30;73.30
33863;DHT22;20158;51.436;-2.742;2023-02-02T09:13:39;11.30;72.70
33863;DHT22;20158;51.436;-2.742;2023-02-02T09:16:08;11.40;72.80
33863;DHT22;20158;51.436;-2.742;2023-02-02T09:18:34;11.40;72.70
33863;DHT22;20158;51.436;-2.742;2023-02-02T09:21:03;11.50;72.80
33863;DHT22;20158;51.436;-2.742;2023-02-02T09:23:30;11.50;72.90
33863;DHT22;20158;51.436;-2.742;2023-02-02T09:25:57;11.50;73.10
33863;DHT22;20158;51.436;-2.742;2023-02-02T09:28:23;11.60;72.70
33863;DHT22;20158;51.436;-2.742;2023-02-02T09:30:48;11.60;72.60
33863;DHT22;20158;51.436;-2.742;2023-02-02T09:33:15;11.60;72.60
33863;DHT22;20158;51.436;-2.742;2023-02-02T09:35:40;11.70;72.70
33863;DHT22;20158;51.436;-2.742;2023-02-02T09:38:06;11.80;73.30
33863;DHT22;20158;51.436;-2.742;2023-02-02T09:40:34;11.80;72.60
33863;DHT22;20158;51.436;-2.742;2023-02-02T09:45:58;11.90;72.60
33863;DHT22;20158;51.436;-2.742;2023-02-02T09:48:37;12.00;72.60
33863;DHT22;20158;51.436;-2.742;2023-02-02T09:51:12;12.00;72.60
33863;DHT22;20158;51.436;-2.742;2023-02-02T09:53:41;12.00;72.60
33863;DHT22;20158;51.436;-2.742;2023-02-02T09:56:16;12.00;72.50
33863;DHT22;20158;51.436;-2.742;2023-02-02T09:58:54;12.00;72.40
33863;DHT22;20158;51.436;-2.742;2023-02-02T10:01:29;12.10;72.60
33863;DHT22;20158;51.436;-2.742;2023-02-02T10:06:42;12.10;72.50
33863;DHT22;20158;51.436;-2.742;2023-02-02T10:12:24;12.20;72.50
33863;DHT22;20158;51.436;-2.742;2023-02-02T10:15:01;12.20;72.40
33863;DHT22;20158;51.436;-2.742;2023-02-02T10:17:44;12.30;72.50
33863;DHT22;20158;51.436;-2.742;2023-02-02T10:20:20;12.30;72.40
33863;DHT22;20158;51.436;-2.742;2023-02-02T10:22:49;12.40;72.50
33863;DHT22;20158;51.436;-2.742;2023-02-02T10:25:16;12.40;72.30
33863;DHT22;20158;51.436;-2.742;2023-02-02T10:27:54;12.50;72.50
33863;DHT22;20158;51.436;-2.742;2023-02-02T10:30:46;12.50;72.40
33863;DHT22;20158;51.436;-2.742;2023-02-02T10:33:38;12.60;72.40
33863;DHT22;20158;51.436;-2.742;2023-02-02T10:36:14;12.70;72.30
33863;DHT22;20158;51.436;-2.742;2023-02-02T10:38:50;12.80;72.30
33863;DHT22;20158;51.436;-2.742;2023-02-02T10:44:46;13.00;72.20
33863;DHT22;20158;51.436;-2.742;2023-02-02T10:47:28;13.10;72.10
33863;DHT22;20158;51.436;-2.742;2023-02-02T10:52:31;13.30;72.00
33863;DHT22;20158;51.436;-2.742;2023-02-02T10:55:06;13.30;71.80
33863;DHT22;20158;51.436;-2.742;2023-02-02T10:57:57;13.40;71.80
33863;DHT22;20158;51.436;-2.742;2023-02-02T11:00:37;13.40;71.70
33863;DHT22;20158;51.436;-2.742;2023-02-02T11:03:08;13.40;71.60
33863;DHT22;20158;51.436;-2.742;2023-02-02T11:05:35;13.50;71.60
33863;DHT22;20158;51.436;-2.742;2023-02-02T11:08:26;13.50;71.50
33863;DHT22;20158;51.436;-2.742;2023-02-02T11:10:55;13.60;71.50
33863;DHT22;20158;51.436;-2.742;2023-02-02T11:13:28;13.70;71.50
33863;DHT22;20158;51.436;-2.742;2023-02-02T11:16:22;13.70;71.30
33863;DHT22;20158;51.436;-2.742;2023-02-02T11:18:49;13.70;71.10
33863;DHT22;20158;51.436;-2.742;2023-02-02T11:21:26;13.80;71.20
33863;DHT22;20158;51.436;-2.742;2023-02-02T11:26:25;14.00;71.20
33863;DHT22;20158;51.436;-2.742;2023-02-02T11:28:54;14.00;71.20
33863;DHT22;20158;51.436;-2.742;2023-02-02T11:31:36;14.10;71.10
33863;DHT22;20158;51.436;-2.742;2023-02-02T11:34:23;14.10;70.90
33863;DHT22;20158;51.436;-2.742;2023-02-02T11:37:30;14.20;70.90
33863;DHT22;20158;51.436;-2.742;2023-02-02T11:39:52;14.20;70.70
33863;DHT22;20158;51.436;-2.742;2023-02-02T11:42:23;14.30;70.90
33863;DHT22;20158;51.436;-2.742;2023-02-02T11:44:54;14.30;70.80
33863;DHT22;20158;51.436;-2.742;2023-02-02T11:47:29;14.30;70.90
33863;DHT22;20158;51.436;-2.742;2023-02-02T11:49:58;14.40;71.00
33863;DHT22;20158;51.436;-2.742;2023-02-02T11:52:26;14.40;70.90
33863;DHT22;20158;51.436;-2.742;2023-02-02T11:54:59;14.40;70.80
33863;DHT22;20158;51.436;-2.742;2023-02-02T11:57:28;14.40;70.70
33863;DHT22;20158;51.436;-2.742;2023-02-02T12:02:36;14.50;70.60
33863;DHT22;20158;51.436;-2.742;2023-02-02T12:07:41;14.60;70.50
33863;DHT22;20158;51.436;-2.742;2023-02-02T12:13:09;14.70;70.60
33863;DHT22;20158;51.436;-2.742;2023-02-02T12:16:01;14.70;70.50
33863;DHT22;20158;51.436;-2.742;2023-02-02T12:24:33;14.80;70.20
33863;DHT22;20158;51.436;-2.742;2023-02-02T12:32:40;14.80;70.20
33863;DHT22;20158;51.436;-2.742;2023-02-02T12:43:51;14.80;70.00
33863;DHT22;20158;51.436;-2.742;2023-02-02T12:52:42;14.90;69.90
33863;DHT22;20158;51.436;-2.742;2023-02-02T12:58:23;15.00;70.30
33863;DHT22;20158;51.436;-2.742;2023-02-02T13:09:25;15.40;70.70
33863;DHT22;20158;51.436;-2.742;2023-02-02T13:16:59;15.60;70.50
33863;DHT22;20158;51.436;-2.742;2023-02-02T13:19:43;15.70;70.50
33863;DHT22;20158;51.436;-2.742;2023-02-02T13:22:15;15.80;70.50
33863;DHT22;20158;51.436;-2.742;2023-02-02T13:24:43;15.80;70.50
33863;DHT22;20158;51.436;-2.742;2023-02-02T13:27:17;15.80;70.30
33863;DHT22;20158;51.436;-2.742;2023-02-02T13:29:53;15.90;70.40
33863;DHT22;20158;51.436;-2.742;2023-02-02T13:32:38;16.00;70.30
33863;DHT22;20158;51.436;-2.742;2023-02-02T13:35:16;16.10;70.20
33863;DHT22;20158;51.436;-2.742;2023-02-02T13:37:54;16.20;70.10
33863;DHT22;20158;51.436;-2.742;2023-02-02T13:40:24;16.20;69.90
33863;DHT22;20158;51.436;-2.742;2023-02-02T13:49:10;16.30;69.60
33863;DHT22;20158;51.436;-2.742;2023-02-02T14:04:53;16.00;69.00
33863;DHT22;20158;51.436;-2.742;2023-02-02T14:07:36;15.90;68.90
33863;DHT22;20158;51.436;-2.742;2023-02-02T14:10:03;15.90;68.90
33863;DHT22;20158;51.436;-2.742;2023-02-02T14:12:32;15.80;68.90
33863;DHT22;20158;51.436;-2.742;2023-02-02T14:14:59;15.80;68.80
33863;DHT22;20158;51.436;-2.742;2023-02-02T14:19:59;15.60;68.60
33863;DHT22;20158;51.436;-2.742;2023-02-02T14:28:07;15.50;68.50
33863;DHT22;20158;51.436;-2.742;2023-02-02T14:30:35;15.50;68.60
33863;DHT22;20158;51.436;-2.742;2023-02-02T14:33:24;15.50;68.50
33863;DHT22;20158;51.436;-2.742;2023-02-02T14:35:52;15.50;68.40
33863;DHT22;20158;51.436;-2.742;2023-02-02T14:44:03;15.40;68.30
33863;DHT22;20158;51.436;-2.742;2023-02-02T14:46:36;15.40;68.20
33863;DHT22;20158;51.436;-2.742;2023-02-02T14:51:30;15.40;68.30
33863;DHT22;20158;51.436;-2.742;2023-02-02T14:54:31;15.30;68.20
33863;DHT22;20158;51.436;-2.742;2023-02-02T14:57:01;15.30;68.30
33863;DHT22;20158;51.436;-2.742;2023-02-02T14:59:32;15.20;68.10
33863;DHT22;20158;51.436;-2.742;2023-02-02T15:02:29;15.20;68.20
33863;DHT22;20158;51.436;-2.742;2023-02-02T15:08:25;15.00;67.90
33863;DHT22;20158;51.436;-2.742;2023-02-02T15:13:23;14.90;68.10
33863;DHT22;20158;51.436;-2.742;2023-02-02T15:16:00;14.90;68.10
33863;DHT22;20158;51.436;-2.742;2023-02-02T15:18:33;14.80;68.00
33863;DHT22;20158;51.436;-2.742;2023-02-02T15:21:05;14.70;68.50
33863;DHT22;20158;51.436;-2.742;2023-02-02T15:23:39;14.60;68.00
33863;DHT22;20158;51.436;-2.742;2023-02-02T15:26:19;14.60;68.10
33863;DHT22;20158;51.436;-2.742;2023-02-02T15:29:16;14.60;68.20
33863;DHT22;20158;51.436;-2.742;2023-02-02T15:31:48;14.50;68.20
33863;DHT22;20158;51.436;-2.742;2023-02-02T15:34:21;14.40;68.10
33863;DHT22;20158;51.436;-2.742;2023-02-02T15:36:52;14.30;68.10
33863;DHT22;20158;51.436;-2.742;2023-02-02T15:39:43;14.30;68.20
33863;DHT22;20158;51.436;-2.742;2023-02-02T15:42:15;14.20;68.20
33863;DHT22;20158;51.436;-2.742;2023-02-02T15:45:34;14.20;68.20
33863;DHT22;20158;51.436;-2.742;2023-02-02T15:48:15;14.10;68.30
33863;DHT22;20158;51.436;-2.742;2023-02-02T15:50:45;14.10;68.40
33863;DHT22;20158;51.436;-2.742;2023-02-02T15:53:23;14.00;68.30
33863;DHT22;20158;51.436;-2.742;2023-02-02T15:55:50;13.90;68.30
33863;DHT22;20158;51.436;-2.742;2023-02-02T15:58:32;13.90;68.40
33863;DHT22;20158;51.436;-2.742;2023-02-02T16:01:16;13.80;68.30
33863;DHT22;20158;51.436;-2.742;2023-02-02T16:04:19;13.80;68.40
33863;DHT22;20158;51.436;-2.742;2023-02-02T16:06:47;13.80;68.40
33863;DHT22;20158;51.436;-2.742;2023-02-02T16:09:24;13.80;68.50
33863;DHT22;20158;51.436;-2.742;2023-02-02T16:11:51;13.70;68.50
33863;DHT22;20158;51.436;-2.742;2023-02-02T16:14:17;13.60;68.40
33863;DHT22;20158;51.436;-2.742;2023-02-02T16:16:44;13.60;68.40
33863;DHT22;20158;51.436;-2.742;2023-02-02T16:19:22;13.60;68.50
33863;DHT22;20158;51.436;-2.742;2023-02-02T16:24:36;13.50;68.50
33863;DHT22;20158;51.436;-2.742;2023-02-02T16:27:06;13.50;68.60
33863;DHT22;20158;51.436;-2.742;2023-02-02T16:29:33;13.40;68.50
33863;DHT22;20158;51.436;-2.742;2023-02-02T16:32:00;13.40;68.60
33863;DHT22;20158;51.436;-2.742;2023-02-02T16:37:26;13.40;68.70
33863;DHT22;20158;51.436;-2.742;2023-02-02T16:42:42;13.30;68.70
33863;DHT22;20158;51.436;-2.742;2023-02-02T16:45:36;13.30;68.70
33863;DHT22;20158;51.436;-2.742;2023-02-02T16:48:35;13.30;68.90
33863;DHT22;20158;51.436;-2.742;2023-02-02T16:51:27;13.20;68.70
33863;DHT22;20158;51.436;-2.742;2023-02-02T16:56:40;13.10;68.70
33863;DHT22;20158;51.436;-2.742;2023-02-02T17:02:29;13.10;68.90
33863;DHT22;20158;51.436;-2.742;2023-02-02T17:05:16;13.00;68.80
33863;DHT22;20158;51.436;-2.742;2023-02-02T17:07:49;13.00;68.90
33863;DHT22;20158;51.436;-2.742;2023-02-02T17:12:44;12.90;68.90
33863;DHT22;20158;51.436;-2.742;2023-02-02T17:17:47;12.80;68.90
33863;DHT22;20158;51.436;-2.742;2023-02-02T17:20:17;12.80;68.90
33863;DHT22;20158;51.436;-2.742;2023-02-02T17:22:57;12.80;69.10
33863;DHT22;20158;51.436;-2.742;2023-02-02T17:25:44;12.70;69.00
33863;DHT22;20158;51.436;-2.742;2023-02-02T17:28:20;12.70;69.10
33863;DHT22;20158;51.436;-2.742;2023-02-02T17:30:56;12.70;69.20
33863;DHT22;20158;51.436;-2.742;2023-02-02T17:33:26;12.60;69.10
33863;DHT22;20158;51.436;-2.742;2023-02-02T17:35:52;12.60;69.20
33863;DHT22;20158;51.436;-2.742;2023-02-02T17:38:19;12.60;69.20
33863;DHT22;20158;51.436;-2.742;2023-02-02T17:40:47;12.60;69.40
33863;DHT22;20158;51.436;-2.742;2023-02-02T17:43:13;12.60;69.50
33863;DHT22;20158;51.436;-2.742;2023-02-02T17:45:40;12.60;69.60
33863;DHT22;20158;51.436;-2.742;2023-02-02T17:48:08;12.50;69.60
33863;DHT22;20158;51.436;-2.742;2023-02-02T17:50:36;12.50;69.60
33863;DHT22;20158;51.436;-2.742;2023-02-02T17:53:02;12.50;69.80
33863;DHT22;20158;51.436;-2.742;2023-02-02T17:55:32;12.50;69.80
33863;DHT22;20158;51.436;-2.742;2023-02-02T17:58:00;12.50;69.80
33863;DHT22;20158;51.436;-2.742;2023-02-02T18:00:26;12.40;69.70
33863;DHT22;20158;51.436;-2.742;2023-02-02T18:02:56;12.40;69.70
33863;DHT22;20158;51.436;-2.742;2023-02-02T18:05:24;12.40;69.80
33863;DHT22;20158;51.436;-2.742;2023-02-02T18:07:51;12.40;69.80
33863;DHT22;20158;51.436;-2.742;2023-02-02T18:10:18;12.40;69.80
33863;DHT22;20158;51.436;-2.742;2023-02-02T18:12:49;12.40;69.90
33863;DHT22;20158;51.436;-2.742;2023-02-02T18:15:15;12.40;70.00